Time;durP1;ratioP1;P1;durP2;ratioP2;P2;SDS_P1;SDS_P2;PMS_P1;PMS_P2;Temp;Humidity;BMP_temperature;BMP_pressure;BME280_temperature;BME280_humidity;BME280_pressure;Samples;Min_cycle;Max_cycle;Signal;HPM_P1;HPM_P2
2023/07/03 00:01:02;;;;;;;19.83;6.43;;;;;;;;;;5023169;28;20033;-62
2023/07/03 00:03:27;;;;;;;16.92;7.07;;;;;;;;;;5016272;28;21033;-62
2023/07/03 00:05:53;;;;;;;16.58;6.22;;;;;;;;;;5011727;28;20042;-62
2023/07/03 00:08:18;;;;;;;21.73;7.50;;;;;;;;;;5010889;28;20037;-62
2023/07/03 00:10:43;;;;;;;24.67;7.85;;;;;;;;;;5011887;28;20503;-62
2023/07/03 00:13:09;;;;;;;15.40;6.13;;;;;;;;;;5010429;28;20461;-62
2023/07/03 00:15:34;;;;;;;25.30;6.82;;;;;;;;;;5021527;28;21053;-62
2023/07/03 00:17:59;;;;;;;20.13;7.22;;;;;;;;;;5016357;28;20042;-62
2023/07/03 00:20:27;;;;;;;17.60;6.25;;;;;;;;;;5028704;28;20096;-63
2023/07/03 00:22:52;;;;;;;17.50;6.82;;;;;;;;;;5030015;28;20064;-62
2023/07/03 00:25:18;;;;;;;26.03;7.17;;;;;;;;;;5019379;28;20616;-63
2023/07/03 00:27:43;;;;;;;20.33;5.90;;;;;;;;;;5010627;28;20033;-62
2023/07/03 00:30:09;;;;;;;22.63;8.60;;;;;;;;;;5011917;28;20489;-62
2023/07/03 00:32:34;;;;;;;22.83;5.30;;;;;;;;;;5010035;28;20034;-62
2023/07/03 00:34:59;;;;;;;20.55;7.60;;;;;;;;;;5011385;28;20432;-62
2023/07/03 00:37:24;;;;;;;15.43;6.03;;;;;;;;;;5010109;28;20081;-62
2023/07/03 00:39:50;;;;;;;14.55;5.88;;;;;;;;;;5010420;28;20362;-62
2023/07/03 00:42:15;;;;;;;17.88;6.70;;;;;;;;;;5010258;28;20061;-63
2023/07/03 00:44:40;;;;;;;18.13;7.10;;;;;;;;;;5020494;28;20018;-62
2023/07/03 00:47:07;;;;;;;19.13;6.70;;;;;;;;;;5029405;28;20041;-62
2023/07/03 00:49:32;;;;;;;16.35;7.20;;;;;;;;;;5031165;28;20480;-61
2023/07/03 00:51:59;;;;;;;20.47;6.23;;;;;;;;;;5028482;28;20040;-61
2023/07/03 00:54:24;;;;;;;18.10;5.72;;;;;;;;;;5006745;28;20456;-61
2023/07/03 00:56:49;;;;;;;16.50;7.17;;;;;;;;;;5008987;28;20034;-61
2023/07/03 00:59:15;;;;;;;17.53;7.43;;;;;;;;;;5026585;28;20443;-61
2023/07/03 01:01:49;;;;;;;17.77;6.82;;;;;;;;;;5029539;28;20404;-61
2023/07/03 01:04:19;;;;;;;15.98;7.10;;;;;;;;;;5012577;28;20128;-74
2023/07/03 01:06:46;;;;;;;33.30;8.30;;;;;;;;;;5009691;28;20100;-63
2023/07/03 01:09:12;;;;;;;17.50;5.95;;;;;;;;;;5010537;28;20025;-63
2023/07/03 01:11:37;;;;;;;16.30;7.05;;;;;;;;;;5009774;28;20113;-63
2023/07/03 01:14:05;;;;;;;23.52;7.43;;;;;;;;;;5017888;28;20045;-63
2023/07/03 01:16:32;;;;;;;21.77;6.50;;;;;;;;;;5029133;28;20026;-63
2023/07/03 01:18:58;;;;;;;14.93;6.60;;;;;;;;;;5030456;28;20112;-64
2023/07/03 01:21:28;;;;;;;20.08;8.05;;;;;;;;;;5029179;28;20013;-63
2023/07/03 01:23:56;;;;;;;34.45;10.05;;;;;;;;;;5014002;28;20595;-64
2023/07/03 01:26:22;;;;;;;12.30;6.57;;;;;;;;;;5020307;28;20048;-63
2023/07/03 01:28:51;;;;;;;10.07;5.35;;;;;;;;;;5029462;28;20013;-64
2023/07/03 01:31:16;;;;;;;10.70;4.60;;;;;;;;;;5026004;28;20014;-63
2023/07/03 01:33:44;;;;;;;18.33;6.80;;;;;;;;;;5010551;28;20626;-63
2023/07/03 01:36:12;;;;;;;13.65;6.78;;;;;;;;;;5010809;28;20022;-63
2023/07/03 01:38:38;;;;;;;27.45;8.25;;;;;;;;;;5009051;28;20278;-63
2023/07/03 01:41:03;;;;;;;18.50;7.25;;;;;;;;;;5010800;28;20025;-63
2023/07/03 01:43:30;;;;;;;19.77;7.30;;;;;;;;;;5009419;28;20408;-63
2023/07/03 01:45:55;;;;;;;15.63;6.68;;;;;;;;;;5012357;28;20518;-63
2023/07/03 01:48:20;;;;;;;21.83;8.17;;;;;;;;;;5027487;28;20116;-63
2023/07/03 01:50:47;;;;;;;16.93;5.63;;;;;;;;;;5016224;28;20021;-63
2023/07/03 01:53:24;;;;;;;14.18;7.05;;;;;;;;;;5010786;28;20634;-64
2023/07/03 01:56:08;;;;;;;12.30;6.03;;;;;;;;;;5010427;28;20156;-63
2023/07/03 01:58:42;;;;;;;16.13;4.82;;;;;;;;;;5009033;28;20042;-63
2023/07/03 02:01:10;;;;;;;12.77;5.20;;;;;;;;;;4990608;28;20030;-62
2023/07/03 02:03:40;;;;;;;18.33;5.93;;;;;;;;;;4989921;28;20051;-62
2023/07/03 02:06:09;;;;;;;16.70;5.78;;;;;;;;;;5012275;28;20049;-62
2023/07/03 02:08:34;;;;;;;11.88;5.63;;;;;;;;;;5012422;28;20033;-62
2023/07/03 02:10:59;;;;;;;16.23;4.73;;;;;;;;;;5013946;28;20400;-62
2023/07/03 02:13:24;;;;;;;19.17;6.18;;;;;;;;;;5013058;28;20092;-62
2023/07/03 02:15:49;;;;;;;15.63;5.43;;;;;;;;;;5013827;28;20022;-63
2023/07/03 02:18:17;;;;;;;17.03;7.03;;;;;;;;;;5012851;28;20468;-61
2023/07/03 02:20:43;;;;;;;15.75;6.22;;;;;;;;;;5014172;28;20428;-62
2023/07/03 02:23:09;;;;;;;16.50;5.57;;;;;;;;;;5012245;28;20058;-62
2023/07/03 02:25:34;;;;;;;21.33;6.53;;;;;;;;;;5014059;28;20197;-62
2023/07/03 02:27:59;;;;;;;17.00;4.83;;;;;;;;;;5012180;28;20042;-62
2023/07/03 02:30:25;;;;;;;22.25;7.00;;;;;;;;;;5015534;28;20494;-62
2023/07/03 02:32:50;;;;;;;15.68;6.00;;;;;;;;;;5012348;28;20030;-63
2023/07/03 02:35:15;;;;;;;14.63;4.43;;;;;;;;;;5014133;28;20030;-62
2023/07/03 02:37:40;;;;;;;29.13;8.17;;;;;;;;;;5012075;28;20451;-67
2023/07/03 02:40:10;;;;;;;20.47;7.23;;;;;;;;;;5013437;28;20026;-62
2023/07/03 02:42:35;;;;;;;19.52;7.57;;;;;;;;;;5012668;28;20448;-62
2023/07/03 02:45:00;;;;;;;10.82;5.00;;;;;;;;;;5031541;28;20017;-62
2023/07/03 02:47:26;;;;;;;18.15;6.35;;;;;;;;;;5026276;28;20558;-62
2023/07/03 02:49:51;;;;;;;18.33;5.60;;;;;;;;;;5013204;28;20021;-62
2023/07/03 02:52:16;;;;;;;17.50;5.32;;;;;;;;;;5012387;28;20483;-62
2023/07/03 02:54:41;;;;;;;16.70;6.05;;;;;;;;;;5028667;28;20522;-63
2023/07/03 02:57:07;;;;;;;20.20;6.57;;;;;;;;;;5011694;28;20071;-63
2023/07/03 02:59:32;;;;;;;20.83;6.65;;;;;;;;;;5013605;28;20075;-63
2023/07/03 03:01:57;;;;;;;25.70;8.20;;;;;;;;;;5011469;28;20523;-62
2023/07/03 03:04:22;;;;;;;18.13;6.65;;;;;;;;;;5012738;28;20967;-63
2023/07/03 03:06:47;;;;;;;18.83;8.07;;;;;;;;;;5011723;28;20512;-64
2023/07/03 03:09:12;;;;;;;22.50;5.37;;;;;;;;;;5012712;28;20054;-64
2023/07/03 03:11:38;;;;;;;17.03;6.30;;;;;;;;;;5011890;28;20034;-64
2023/07/03 03:14:03;;;;;;;17.30;7.00;;;;;;;;;;5013035;28;20025;-64
2023/07/03 03:16:28;;;;;;;16.47;6.27;;;;;;;;;;5013883;28;20437;-64
2023/07/03 03:18:53;;;;;;;18.45;5.38;;;;;;;;;;5012813;28;20022;-64
2023/07/03 03:21:18;;;;;;;18.80;5.85;;;;;;;;;;5018472;28;20021;-63
2023/07/03 03:23:43;;;;;;;19.03;5.90;;;;;;;;;;5032633;28;20021;-64
2023/07/03 03:26:09;;;;;;;16.87;6.80;;;;;;;;;;5032356;28;20467;-64
2023/07/03 03:28:34;;;;;;;17.73;7.20;;;;;;;;;;5031299;28;20491;-63
2023/07/03 03:30:59;;;;;;;29.98;6.53;;;;;;;;;;5031902;28;20024;-63
2023/07/03 03:33:24;;;;;;;30.87;8.57;;;;;;;;;;5031185;28;20038;-63
2023/07/03 03:35:49;;;;;;;21.70;8.25;;;;;;;;;;5031850;28;20432;-63
2023/07/03 03:38:15;;;;;;;17.27;4.50;;;;;;;;;;5030834;28;20041;-63
2023/07/03 03:40:40;;;;;;;19.15;7.47;;;;;;;;;;5016131;28;20107;-63
2023/07/03 03:43:05;;;;;;;12.87;6.77;;;;;;;;;;5011341;28;20045;-64
2023/07/03 03:45:30;;;;;;;27.15;8.30;;;;;;;;;;5006467;28;20461;-63
2023/07/03 03:47:55;;;;;;;15.88;7.32;;;;;;;;;;5010825;28;20523;-60
2023/07/03 03:50:21;;;;;;;20.13;5.10;;;;;;;;;;5012749;28;20025;-62
2023/07/03 03:52:46;;;;;;;22.65;8.27;;;;;;;;;;5010754;28;20092;-62
2023/07/03 03:55:11;;;;;;;21.70;7.00;;;;;;;;;;5012315;28;20040;-62
2023/07/03 03:57:36;;;;;;;17.30;6.10;;;;;;;;;;5010991;28;20847;-62
2023/07/03 04:00:03;;;;;;;23.40;6.82;;;;;;;;;;5011543;28;20028;-62
2023/07/03 04:02:28;;;;;;;19.65;9.00;;;;;;;;;;5010713;28;20092;-62
2023/07/03 04:04:54;;;;;;;22.92;5.90;;;;;;;;;;5011949;28;20042;-62
2023/07/03 04:07:19;;;;;;;22.53;7.93;;;;;;;;;;5010057;28;20046;-62
2023/07/03 04:09:44;;;;;;;20.90;7.00;;;;;;;;;;5012038;28;20500;-62
2023/07/03 04:12:09;;;;;;;19.13;7.07;;;;;;;;;;5010029;28;20485;-61
2023/07/03 04:14:34;;;;;;;26.27;7.13;;;;;;;;;;5011146;28;20045;-61
2023/07/03 04:17:00;;;;;;;18.45;6.13;;;;;;;;;;5009723;28;20034;-61
2023/07/03 04:19:27;;;;;;;32.38;8.18;;;;;;;;;;5010326;28;20480;-61
2023/07/03 04:21:52;;;;;;;21.50;5.72;;;;;;;;;;4992542;28;20034;-60
2023/07/03 04:24:18;;;;;;;27.98;8.80;;;;;;;;;;5011086;28;20083;-60
2023/07/03 04:26:43;;;;;;;26.23;9.70;;;;;;;;;;5009499;28;20045;-61
2023/07/03 04:29:08;;;;;;;24.77;8.70;;;;;;;;;;5011214;28;20037;-60
2023/07/03 04:31:34;;;;;;;26.90;9.50;;;;;;;;;;5010417;28;20441;-61
2023/07/03 04:33:59;;;;;;;26.58;6.97;;;;;;;;;;5011616;28;20612;-60
2023/07/03 04:36:25;;;;;;;29.55;9.07;;;;;;;;;;5009562;28;20093;-60
2023/07/03 04:38:50;;;;;;;22.85;5.72;;;;;;;;;;5012863;28;20587;-61
2023/07/03 04:41:16;;;;;;;30.77;7.87;;;;;;;;;;5010475;28;20020;-60
2023/07/03 04:43:44;;;;;;;26.10;8.10;;;;;;;;;;5011094;28;20465;-61
2023/07/03 04:46:10;;;;;;;17.35;6.30;;;;;;;;;;5011388;28;20038;-61
2023/07/03 04:48:35;;;;;;;15.05;6.30;;;;;;;;;;5010163;28;20504;-61
2023/07/03 04:51:00;;;;;;;25.30;10.35;;;;;;;;;;5011038;28;20583;-61
2023/07/03 04:53:26;;;;;;;23.77;6.53;;;;;;;;;;5010097;28;20033;-61
2023/07/03 04:55:51;;;;;;;20.35;8.25;;;;;;;;;;5011059;28;20467;-62
2023/07/03 04:58:16;;;;;;;26.27;6.17;;;;;;;;;;5009552;28;20046;-62
2023/07/03 05:00:41;;;;;;;27.90;8.60;;;;;;;;;;5011173;28;20025;-63
2023/07/03 05:03:08;;;;;;;27.30;7.07;;;;;;;;;;5009739;28;20457;-62
2023/07/03 05:05:33;;;;;;;35.58;8.25;;;;;;;;;;5011159;28;20512;-61
2023/07/03 05:07:58;;;;;;;24.30;9.00;;;;;;;;;;5009202;28;20108;-60
2023/07/03 05:10:24;;;;;;;33.22;8.48;;;;;;;;;;5011515;28;20029;-59
2023/07/03 05:12:50;;;;;;;19.45;6.10;;;;;;;;;;5009619;28;20144;-59
2023/07/03 05:15:16;;;;;;;23.48;8.32;;;;;;;;;;5011035;28;20389;-60
2023/07/03 05:17:41;;;;;;;24.30;6.70;;;;;;;;;;5009495;28;20125;-59
2023/07/03 05:20:14;;;;;;;30.27;8.52;;;;;;;;;;5010885;28;20497;-59
2023/07/03 05:22:41;;;;;;;27.75;9.25;;;;;;;;;;5009398;28;20177;-60
2023/07/03 05:25:07;;;;;;;30.25;8.70;;;;;;;;;;5011252;28;20021;-60
2023/07/03 05:27:33;;;;;;;32.83;11.18;;;;;;;;;;5009572;28;20124;-59
2023/07/03 05:29:58;;;;;;;38.10;11.63;;;;;;;;;;5010315;28;20101;-60
2023/07/03 05:32:24;;;;;;;28.80;9.65;;;;;;;;;;5009588;28;20034;-59
2023/07/03 05:34:49;;;;;;;56.63;8.65;;;;;;;;;;5010713;28;20129;-59
2023/07/03 05:37:14;;;;;;;36.03;8.53;;;;;;;;;;5008908;28;20049;-59
2023/07/03 05:39:39;;;;;;;30.02;9.07;;;;;;;;;;5014776;28;20433;-60
2023/07/03 05:42:04;;;;;;;20.13;6.73;;;;;;;;;;5013408;28;20117;-60
2023/07/03 05:44:30;;;;;;;27.50;8.30;;;;;;;;;;5014547;28;20022;-60
2023/07/03 05:46:55;;;;;;;29.70;10.30;;;;;;;;;;5013099;28;20479;-60
2023/07/03 05:49:20;;;;;;;24.93;8.00;;;;;;;;;;5013892;28;20049;-60
2023/07/03 05:51:45;;;;;;;40.00;9.32;;;;;;;;;;5011126;28;20112;-59
2023/07/03 05:54:10;;;;;;;32.80;9.77;;;;;;;;;;5012802;28;20108;-59
2023/07/03 05:56:35;;;;;;;28.17;8.30;;;;;;;;;;5011179;28;20448;-59
2023/07/03 05:59:01;;;;;;;31.30;9.00;;;;;;;;;;5012064;28;20730;-59
2023/07/03 06:01:27;;;;;;;26.90;8.50;;;;;;;;;;5010260;28;20819;-59
2023/07/03 06:03:52;;;;;;;33.25;9.68;;;;;;;;;;5012563;28;20022;-60
2023/07/03 06:06:17;;;;;;;26.70;8.33;;;;;;;;;;5011921;28;20057;-59
2023/07/03 06:08:42;;;;;;;22.17;6.43;;;;;;;;;;5014398;28;20042;-60
2023/07/03 06:11:07;;;;;;;32.63;8.85;;;;;;;;;;5013870;28;20024;-59
2023/07/03 06:13:33;;;;;;;27.10;8.55;;;;;;;;;;5012554;28;20049;-60
2023/07/03 06:15:58;;;;;;;34.90;8.20;;;;;;;;;;5013686;28;20018;-64
2023/07/03 06:18:23;;;;;;;29.97;9.77;;;;;;;;;;5012520;28;20038;-60
2023/07/03 06:20:48;;;;;;;30.17;8.17;;;;;;;;;;5013659;28;20099;-59
2023/07/03 06:23:14;;;;;;;27.75;9.80;;;;;;;;;;5012360;28;20406;-59
2023/07/03 06:25:40;;;;;;;36.13;11.82;;;;;;;;;;5012843;28;20022;-59
2023/07/03 06:28:05;;;;;;;20.48;8.15;;;;;;;;;;5012114;28;20034;-60
2023/07/03 06:30:30;;;;;;;38.83;12.17;;;;;;;;;;5013971;28;20062;-60
2023/07/03 06:32:55;;;;;;;27.73;9.40;;;;;;;;;;5012216;28;20124;-59
2023/07/03 06:35:20;;;;;;;29.02;8.75;;;;;;;;;;5013650;28;20018;-59
2023/07/03 06:37:46;;;;;;;34.83;8.97;;;;;;;;;;5012469;28;20030;-60
2023/07/03 06:40:13;;;;;;;31.90;8.87;;;;;;;;;;5013500;28;20500;-59
2023/07/03 06:42:38;;;;;;;25.45;7.22;;;;;;;;;;5011892;28;20033;-60
2023/07/03 06:45:03;;;;;;;26.63;8.17;;;;;;;;;;5013075;28;20368;-60
2023/07/03 06:47:28;;;;;;;25.73;10.50;;;;;;;;;;5012270;28;20121;-59
2023/07/03 06:49:54;;;;;;;24.97;7.83;;;;;;;;;;5012245;28;20026;-60
2023/07/03 06:52:19;;;;;;;27.73;9.20;;;;;;;;;;5012048;28;20033;-62
2023/07/03 06:54:45;;;;;;;26.73;9.30;;;;;;;;;;5013609;28;20505;-59
2023/07/03 06:57:11;;;;;;;30.30;9.57;;;;;;;;;;5011217;28;20564;-59
2023/07/03 06:59:36;;;;;;;26.90;6.97;;;;;;;;;;5013515;28;20117;-59
2023/07/03 07:02:01;;;;;;;23.33;9.03;;;;;;;;;;5011812;28;20034;-59
2023/07/03 07:04:27;;;;;;;18.63;8.07;;;;;;;;;;5012959;28;20061;-59
2023/07/03 07:06:53;;;;;;;15.15;6.80;;;;;;;;;;5011776;28;20045;-60
2023/07/03 07:09:18;;;;;;;26.45;8.48;;;;;;;;;;5013705;28;20040;-59
2023/07/03 07:11:43;;;;;;;22.50;8.10;;;;;;;;;;5011379;28;20488;-60
2023/07/03 07:14:09;;;;;;;36.60;10.47;;;;;;;;;;5013221;28;20432;-60
2023/07/03 07:16:35;;;;;;;20.77;7.65;;;;;;;;;;5011533;28;20026;-59
2023/07/03 07:19:01;;;;;;;21.73;6.38;;;;;;;;;;5012812;28;20417;-60
2023/07/03 07:21:26;;;;;;;23.20;7.80;;;;;;;;;;5011479;28;20030;-59
2023/07/03 07:23:53;;;;;;;25.75;8.27;;;;;;;;;;5012691;28;20030;-60
2023/07/03 07:26:19;;;;;;;17.75;5.97;;;;;;;;;;5011151;28;20375;-60
2023/07/03 07:28:44;;;;;;;32.35;9.52;;;;;;;;;;5012736;28;20021;-63
2023/07/03 07:31:09;;;;;;;28.80;7.43;;;;;;;;;;5012796;28;20472;-60
2023/07/03 07:33:34;;;;;;;14.47;8.40;;;;;;;;;;5011401;28;20045;-59
2023/07/03 07:35:59;;;;;;;48.20;7.73;;;;;;;;;;5012408;28;20021;-60
2023/07/03 07:38:24;;;;;;;20.90;8.05;;;;;;;;;;5011442;28;20466;-60
2023/07/03 07:40:59;;;;;;;21.98;7.47;;;;;;;;;;5012387;28;20025;-60
2023/07/03 07:43:24;;;;;;;22.50;8.23;;;;;;;;;;5010871;28;20048;-60
2023/07/03 07:45:53;;;;;;;12.57;5.10;;;;;;;;;;5009957;28;20473;-60
2023/07/03 07:48:18;;;;;;;20.23;6.85;;;;;;;;;;5010408;28;20488;-59
2023/07/03 07:50:43;;;;;;;18.15;6.97;;;;;;;;;;5012088;28;20068;-60
2023/07/03 07:53:08;;;;;;;24.97;8.30;;;;;;;;;;5010711;28;20362;-59
2023/07/03 07:55:35;;;;;;;27.00;7.78;;;;;;;;;;5012391;28;20063;-60
2023/07/03 07:58:00;;;;;;;15.95;6.22;;;;;;;;;;5010059;28;20034;-59
2023/07/03 08:00:25;;;;;;;18.27;5.93;;;;;;;;;;5012286;28;20022;-60
2023/07/03 08:02:50;;;;;;;22.97;7.37;;;;;;;;;;5010463;28;20030;-60
2023/07/03 08:05:16;;;;;;;15.43;6.57;;;;;;;;;;5011729;28;20037;-60
2023/07/03 08:07:41;;;;;;;25.43;7.57;;;;;;;;;;5010901;28;20033;-66
2023/07/03 08:10:06;;;;;;;27.00;7.13;;;;;;;;;;5012068;28;20923;-59
2023/07/03 08:12:31;;;;;;;26.92;9.65;;;;;;;;;;5010253;28;20057;-60
2023/07/03 08:14:56;;;;;;;23.67;6.17;;;;;;;;;;5011943;28;20045;-59
2023/07/03 08:17:22;;;;;;;22.52;7.57;;;;;;;;;;5010612;28;20030;-59
2023/07/03 08:19:47;;;;;;;22.05;6.68;;;;;;;;;;5011661;28;20100;-59
2023/07/03 08:22:12;;;;;;;22.33;6.88;;;;;;;;;;5010347;28;20034;-59
2023/07/03 08:24:37;;;;;;;17.23;5.00;;;;;;;;;;5011891;28;20029;-59
2023/07/03 08:27:02;;;;;;;13.77;4.25;;;;;;;;;;5009879;28;20038;-59
2023/07/03 08:29:27;;;;;;;13.00;4.97;;;;;;;;;;5012060;28;20105;-59
2023/07/03 08:31:52;;;;;;;22.42;5.88;;;;;;;;;;5010177;28;20463;-60
2023/07/03 08:34:18;;;;;;;17.07;6.33;;;;;;;;;;5011434;28;20607;-59
2023/07/03 08:36:43;;;;;;;10.20;4.10;;;;;;;;;;5010080;28;21014;-60
2023/07/03 08:39:08;;;;;;;14.68;5.13;;;;;;;;;;5009997;28;20463;-60
2023/07/03 08:41:40;;;;;;;18.30;5.80;;;;;;;;;;5009832;28;20512;-60
2023/07/03 08:44:07;;;;;;;13.45;3.97;;;;;;;;;;5011193;28;20499;-60
2023/07/03 08:46:33;;;;;;;11.23;4.72;;;;;;;;;;5009756;28;20042;-60
2023/07/03 08:49:03;;;;;;;17.10;5.85;;;;;;;;;;5010898;28;20040;-60
2023/07/03 08:51:29;;;;;;;11.55;3.58;;;;;;;;;;5010070;28;20033;-60
2023/07/03 08:53:59;;;;;;;24.13;5.47;;;;;;;;;;5011080;28;20566;-59
2023/07/03 08:56:26;;;;;;;17.75;5.95;;;;;;;;;;5009548;28;20018;-60
2023/07/03 08:58:53;;;;;;;14.80;3.85;;;;;;;;;;5011178;28;20022;-59
2023/07/03 09:01:24;;;;;;;22.40;7.18;;;;;;;;;;5009865;28;20018;-59
2023/07/03 09:04:08;;;;;;;20.77;4.90;;;;;;;;;;5010765;28;20109;-60
2023/07/03 09:06:33;;;;;;;10.70;2.97;;;;;;;;;;5009791;28;20046;-59
2023/07/03 09:08:58;;;;;;;13.95;3.72;;;;;;;;;;5011081;28;20037;-59
2023/07/03 09:11:25;;;;;;;12.52;4.65;;;;;;;;;;5009677;28;20017;-60
2023/07/03 09:13:52;;;;;;;16.30;6.60;;;;;;;;;;5010598;28;20017;-59
2023/07/03 09:16:19;;;;;;;19.27;6.00;;;;;;;;;;5009687;28;20104;-60
2023/07/03 09:18:56;;;;;;;16.67;5.45;;;;;;;;;;5011080;28;20025;-59
2023/07/03 09:21:21;;;;;;;13.90;5.07;;;;;;;;;;5009495;28;20061;-60
2023/07/03 09:23:53;;;;;;;15.82;5.00;;;;;;;;;;5011042;28;20014;-59
2023/07/03 09:26:19;;;;;;;11.95;4.53;;;;;;;;;;5009387;28;20033;-60
2023/07/03 09:28:44;;;;;;;28.95;4.95;;;;;;;;;;5011080;28;20010;-60
2023/07/03 09:31:09;;;;;;;23.63;5.93;;;;;;;;;;5010935;28;20101;-59
2023/07/03 09:33:34;;;;;;;13.57;4.93;;;;;;;;;;5009191;28;20034;-60
2023/07/03 09:36:18;;;;;;;8.73;3.35;;;;;;;;;;5010911;28;20037;-72
2023/07/03 09:38:43;;;;;;;14.57;4.50;;;;;;;;;;5009978;28;20100;-60
2023/07/03 09:41:08;;;;;;;17.73;4.37;;;;;;;;;;5010409;28;20034;-60
2023/07/03 09:43:33;;;;;;;21.77;5.87;;;;;;;;;;5009317;28;20034;-60
2023/07/03 09:46:03;;;;;;;14.20;4.40;;;;;;;;;;5009259;28;20073;-60
2023/07/03 09:48:30;;;;;;;21.80;9.45;;;;;;;;;;5009117;28;20555;-59
2023/07/03 09:50:55;;;;;;;18.95;4.95;;;;;;;;;;5010832;28;20014;-60
2023/07/03 09:53:22;;;;;;;9.97;4.70;;;;;;;;;;5009390;28;20034;-60
2023/07/03 09:55:52;;;;;;;15.98;6.07;;;;;;;;;;5010339;28;20429;-60
2023/07/03 09:58:17;;;;;;;28.33;5.95;;;;;;;;;;5009292;28;20034;-60
2023/07/03 10:00:44;;;;;;;13.40;4.60;;;;;;;;;;5010748;28;20033;-60
2023/07/03 10:03:09;;;;;;;20.63;5.75;;;;;;;;;;5008709;28;20887;-60
2023/07/03 10:05:34;;;;;;;14.52;4.32;;;;;;;;;;5010360;28;20050;-59
2023/07/03 10:08:00;;;;;;;15.65;5.20;;;;;;;;;;5008987;28;20030;-59
2023/07/03 10:10:28;;;;;;;35.08;8.52;;;;;;;;;;5008489;28;20034;-59
2023/07/03 10:12:58;;;;;;;13.82;4.47;;;;;;;;;;5008158;28;20120;-59
2023/07/03 10:15:26;;;;;;;20.23;4.97;;;;;;;;;;5009310;28;20018;-59
2023/07/03 10:17:56;;;;;;;11.52;3.10;;;;;;;;;;5007061;28;20034;-59
2023/07/03 10:20:26;;;;;;;14.10;5.00;;;;;;;;;;5010497;28;20049;-59
2023/07/03 10:22:52;;;;;;;24.98;7.78;;;;;;;;;;5008785;28;20493;-60
2023/07/03 10:25:20;;;;;;;10.30;3.63;;;;;;;;;;5011078;28;20464;-60
2023/07/03 10:27:45;;;;;;;11.73;3.80;;;;;;;;;;5008595;28;20038;-60
2023/07/03 10:30:15;;;;;;;13.70;3.83;;;;;;;;;;4992923;28;20409;-60
2023/07/03 10:32:40;;;;;;;16.33;5.60;;;;;;;;;;4992319;28;20034;-60
2023/07/03 10:35:08;;;;;;;17.45;5.43;;;;;;;;;;5006814;28;20032;-60
2023/07/03 10:37:43;;;;;;;26.73;6.45;;;;;;;;;;5011811;28;20030;-60
2023/07/03 10:40:17;;;;;;;23.35;7.22;;;;;;;;;;5013418;28;20042;-59
2023/07/03 10:42:46;;;;;;;12.45;4.70;;;;;;;;;;5012630;28;20112;-60
2023/07/03 10:45:12;;;;;;;11.38;5.57;;;;;;;;;;5013531;28;20087;-59
2023/07/03 10:47:43;;;;;;;13.32;4.50;;;;;;;;;;5010614;28;20121;-60
2023/07/03 10:50:09;;;;;;;16.98;5.32;;;;;;;;;;5013733;28;20026;-59
2023/07/03 10:52:41;;;;;;;12.70;6.10;;;;;;;;;;5012138;28;20049;-60
2023/07/03 10:55:09;;;;;;;16.83;5.88;;;;;;;;;;5013013;28;20025;-59
2023/07/03 10:57:42;;;;;;;14.13;3.35;;;;;;;;;;5012234;28;20037;-59
2023/07/03 11:00:12;;;;;;;9.10;3.72;;;;;;;;;;5013292;28;20116;-59
2023/07/03 11:02:41;;;;;;;24.95;5.38;;;;;;;;;;5011771;28;20067;-60
2023/07/03 11:05:08;;;;;;;16.50;4.47;;;;;;;;;;5013069;28;20049;-59
2023/07/03 11:07:45;;;;;;;12.32;4.20;;;;;;;;;;5011878;28;20164;-59
2023/07/03 11:10:22;;;;;;;16.65;6.35;;;;;;;;;;5012993;28;20022;-59
2023/07/03 11:12:54;;;;;;;13.38;4.85;;;;;;;;;;5012007;28;20029;-60
2023/07/03 11:15:27;;;;;;;15.45;4.18;;;;;;;;;;5013314;28;20025;-60
2023/07/03 11:18:01;;;;;;;16.08;5.68;;;;;;;;;;5011254;28;20042;-60
2023/07/03 11:20:35;;;;;;;10.90;3.40;;;;;;;;;;5013390;28;20022;-59
2023/07/03 11:23:06;;;;;;;11.95;4.03;;;;;;;;;;5011612;28;20079;-59
2023/07/03 11:25:36;;;;;;;15.00;4.97;;;;;;;;;;5013014;28;20484;-59
2023/07/03 11:28:20;;;;;;;17.65;5.13;;;;;;;;;;5011483;28;20060;-59
2023/07/03 11:30:45;;;;;;;10.52;4.88;;;;;;;;;;5012514;28;20105;-60
2023/07/03 11:33:13;;;;;;;20.38;6.22;;;;;;;;;;5011008;28;20109;-60
2023/07/03 11:35:49;;;;;;;18.35;4.93;;;;;;;;;;5012822;28;20046;-59
2023/07/03 11:38:18;;;;;;;12.90;4.63;;;;;;;;;;5010801;28;20041;-60
2023/07/03 11:40:55;;;;;;;9.77;4.32;;;;;;;;;;5012689;28;20014;-68
2023/07/03 11:43:32;;;;;;;9.63;3.50;;;;;;;;;;5011305;28;20038;-63
2023/07/03 11:45:57;;;;;;;13.73;4.68;;;;;;;;;;5009663;28;20469;-60
2023/07/03 11:48:41;;;;;;;15.23;3.85;;;;;;;;;;5010829;28;20092;-60
2023/07/03 11:51:06;;;;;;;13.38;4.10;;;;;;;;;;5012404;28;20022;-66
2023/07/03 11:53:36;;;;;;;9.73;3.70;;;;;;;;;;5009096;28;20038;-59
2023/07/03 11:56:02;;;;;;;12.15;3.20;;;;;;;;;;5012225;28;20045;-59
2023/07/03 11:58:29;;;;;;;14.10;4.05;;;;;;;;;;5010921;28;20041;-60
2023/07/03 12:01:13;;;;;;;11.07;2.75;;;;;;;;;;5011441;28;20433;-59
2023/07/03 12:03:52;;;;;;;9.75;4.43;;;;;;;;;;5010409;28;20045;-59
2023/07/03 12:06:36;;;;;;;12.65;5.32;;;;;;;;;;5011910;28;20034;-59
2023/07/03 12:09:20;;;;;;;10.88;3.70;;;;;;;;;;5010149;28;20053;-60
2023/07/03 12:12:00;;;;;;;14.63;4.18;;;;;;;;;;5012223;28;20026;-59
2023/07/03 12:14:40;;;;;;;12.40;3.88;;;;;;;;;;5010424;28;20100;-59
2023/07/03 12:17:18;;;;;;;10.40;3.33;;;;;;;;;;5011575;28;20042;-67
2023/07/03 12:19:43;;;;;;;13.15;3.92;;;;;;;;;;5010696;28;20042;-61
2023/07/03 12:22:11;;;;;;;9.63;4.10;;;;;;;;;;5010428;28;20643;-58
2023/07/03 12:24:36;;;;;;;13.43;4.13;;;;;;;;;;5011677;28;20018;-59
2023/07/03 12:27:03;;;;;;;12.77;3.67;;;;;;;;;;5011678;28;20492;-59
2023/07/03 12:29:29;;;;;;;6.35;2.47;;;;;;;;;;5010278;28;20452;-59
2023/07/03 12:32:05;;;;;;;13.93;4.93;;;;;;;;;;5009845;28;20034;-59
2023/07/03 12:34:31;;;;;;;6.30;3.03;;;;;;;;;;5012178;28;20096;-59
2023/07/03 12:37:04;;;;;;;9.27;2.65;;;;;;;;;;5010098;28;20113;-59
2023/07/03 12:39:29;;;;;;;9.65;3.38;;;;;;;;;;5011849;28;20025;-59
2023/07/03 12:42:03;;;;;;;12.55;3.88;;;;;;;;;;5009876;28;20465;-59
2023/07/03 12:44:28;;;;;;;5.43;3.03;;;;;;;;;;5010676;28;20026;-59
2023/07/03 12:46:53;;;;;;;13.27;3.58;;;;;;;;;;5008536;28;20038;-60
2023/07/03 12:49:20;;;;;;;6.65;2.42;;;;;;;;;;5010427;28;20648;-59
2023/07/03 12:51:54;;;;;;;7.63;2.90;;;;;;;;;;5009278;28;20100;-59
2023/07/03 12:54:20;;;;;;;11.43;3.40;;;;;;;;;;5010703;28;20028;-59
2023/07/03 12:56:46;;;;;;;11.18;4.10;;;;;;;;;;5009369;28;20060;-59
2023/07/03 12:59:14;;;;;;;8.57;3.08;;;;;;;;;;5010887;28;20426;-59
2023/07/03 13:01:40;;;;;;;8.82;2.67;;;;;;;;;;5009743;28;20030;-59
2023/07/03 13:04:06;;;;;;;9.05;4.10;;;;;;;;;;5011014;28;20029;-59
2023/07/03 13:06:32;;;;;;;14.25;3.50;;;;;;;;;;5009276;28;20053;-60
2023/07/03 13:08:58;;;;;;;8.75;3.47;;;;;;;;;;5010858;28;20060;-59
2023/07/03 13:11:31;;;;;;;9.77;3.40;;;;;;;;;;5009818;28;20014;-59
2023/07/03 13:14:06;;;;;;;9.73;2.88;;;;;;;;;;5011227;28;20052;-59
2023/07/03 13:16:31;;;;;;;10.38;4.20;;;;;;;;;;5009893;28;20022;-60
2023/07/03 13:18:57;;;;;;;9.90;3.27;;;;;;;;;;5010970;28;20109;-59
2023/07/03 13:21:22;;;;;;;11.00;3.65;;;;;;;;;;5009689;28;20461;-60
2023/07/03 13:23:47;;;;;;;17.20;3.80;;;;;;;;;;5010793;28;20030;-59
2023/07/03 13:26:20;;;;;;;10.70;3.25;;;;;;;;;;5009307;28;20028;-57
2023/07/03 13:28:55;;;;;;;8.50;4.22;;;;;;;;;;5010930;28;20068;-60
2023/07/03 13:31:21;;;;;;;13.23;4.50;;;;;;;;;;5009416;28;20529;-59
2023/07/03 13:34:06;;;;;;;13.60;3.13;;;;;;;;;;5011000;28;20089;-59
2023/07/03 13:36:35;;;;;;;8.43;2.88;;;;;;;;;;5008969;28;20037;-60
2023/07/03 13:39:12;;;;;;;17.42;3.17;;;;;;;;;;5009108;28;20065;-59
2023/07/03 13:41:38;;;;;;;13.40;3.45;;;;;;;;;;5007160;28;20041;-59
2023/07/03 13:44:05;;;;;;;11.80;3.20;;;;;;;;;;5010368;28;20385;-60
2023/07/03 13:46:30;;;;;;;9.25;4.13;;;;;;;;;;5009147;28;20022;-59
2023/07/03 13:48:56;;;;;;;18.02;3.35;;;;;;;;;;5010838;28;20016;-59
2023/07/03 13:51:22;;;;;;;11.63;3.10;;;;;;;;;;5009211;28;20106;-59
2023/07/03 13:53:51;;;;;;;22.65;5.95;;;;;;;;;;5011124;28;20026;-59
2023/07/03 13:56:17;;;;;;;11.23;5.13;;;;;;;;;;5007063;28;20026;-58
2023/07/03 13:58:42;;;;;;;8.43;2.83;;;;;;;;;;5010342;28;20520;-59
2023/07/03 14:01:07;;;;;;;11.13;3.10;;;;;;;;;;5014094;28;20018;-60
2023/07/03 14:03:32;;;;;;;9.03;2.80;;;;;;;;;;5013269;28;20041;-60
2023/07/03 14:05:57;;;;;;;28.95;4.70;;;;;;;;;;5013502;28;20477;-60
2023/07/03 14:08:22;;;;;;;13.37;3.00;;;;;;;;;;5013069;28;20034;-59
2023/07/03 14:10:48;;;;;;;11.57;3.50;;;;;;;;;;5014440;28;20071;-60
2023/07/03 14:13:13;;;;;;;15.13;3.53;;;;;;;;;;5012656;28;20560;-59
2023/07/03 14:15:39;;;;;;;6.43;2.13;;;;;;;;;;5014168;28;20468;-60
2023/07/03 14:18:04;;;;;;;13.43;2.67;;;;;;;;;;5012600;28;20049;-60
2023/07/03 14:20:29;;;;;;;11.93;3.88;;;;;;;;;;5014268;28;20018;-60
2023/07/03 14:22:55;;;;;;;7.82;2.50;;;;;;;;;;5012180;28;20030;-59
2023/07/03 14:25:22;;;;;;;6.28;2.70;;;;;;;;;;5011913;28;20637;-59
2023/07/03 14:27:47;;;;;;;10.55;3.97;;;;;;;;;;5012304;28;20053;-59
2023/07/03 14:30:12;;;;;;;5.80;3.10;;;;;;;;;;5013347;28;20022;-60